createdAt,value
2019-01-19T00:02:00.929Z,95.70
2019-01-19T00:04:37.472Z,95.60
2019-01-19T00:07:02.053Z,95.70
2019-01-19T00:09:11.556Z,95.50
2019-01-19T00:11:33.304Z,95.40
2019-01-19T00:13:45.546Z,95.50
2019-01-19T00:15:55.214Z,95.70
2019-01-19T00:18:13.692Z,95.80
2019-01-19T00:20:47.099Z,96.00
2019-01-19T00:23:17.563Z,96.10
2019-01-19T00:25:29.969Z,96.00
2019-01-19T00:27:36.674Z,96.10
2019-01-19T00:29:49.007Z,95.80
2019-01-19T00:31:58.420Z,95.60
2019-01-19T00:34:34.961Z,95.70
2019-01-19T00:36:41.656Z,95.80
2019-01-19T00:39:07.650Z,95.90
2019-01-19T00:41:14.383Z,96.00
2019-01-19T00:43:18.839Z,96.20
2019-01-19T00:45:27.458Z,96.50
2019-01-19T00:47:51.578Z,97.00
2019-01-19T00:49:58.272Z,96.90
2019-01-19T00:52:22.659Z,96.80
2019-01-19T00:54:29.324Z,96.80
2019-01-19T00:56:48.209Z,96.70
2019-01-19T00:58:55.232Z,96.90
2019-01-19T01:01:10.733Z,97.30
2019-01-19T01:03:30.116Z,97.60
2019-01-19T01:05:36.866Z,98.20
2019-01-19T01:07:49.553Z,98.40
2019-01-19T01:10:10.972Z,98.40
2019-01-19T01:12:26.375Z,98.40
2019-01-19T01:14:51.176Z,98.30
2019-01-19T01:16:57.970Z,98.20
2019-01-19T01:19:10.773Z,98.20
2019-01-19T01:21:39.766Z,98.20
2019-01-19T01:24:05.770Z,98.40
2019-01-19T01:26:27.470Z,98.60
2019-01-19T01:28:58.069Z,98.80
2019-01-19T01:31:27.019Z,98.70
2019-01-19T01:33:50.015Z,98.70
2019-01-19T01:36:08.605Z,98.80
2019-01-19T01:38:29.934Z,98.70
2019-01-19T01:40:42.442Z,98.70
2019-01-19T01:42:51.979Z,98.40
2019-01-19T01:45:04.525Z,98.40
2019-01-19T01:47:45.556Z,98.40
2019-01-19T01:49:55.298Z,98.30
2019-01-19T01:52:18.617Z,98.20
2019-01-19T01:54:31.373Z,98.20
2019-01-19T01:56:35.150Z,98.30
2019-01-19T01:58:44.854Z,98.20
2019-01-19T02:00:57.231Z,98.10
2019-01-19T02:03:18.958Z,97.70
2019-01-19T02:05:40.175Z,97.70
2019-01-19T02:07:57.687Z,97.70
2019-01-19T02:10:07.185Z,97.50
2019-01-19T02:12:46.267Z,97.50
2019-01-19T02:14:58.625Z,97.50
2019-01-19T02:17:08.005Z,97.40
2019-01-19T02:19:34.052Z,97.70
2019-01-19T02:22:10.136Z,97.60
2019-01-19T02:24:25.461Z,97.40
2019-01-19T02:26:44.781Z,97.50
2019-01-19T02:29:05.984Z,97.50
2019-01-19T02:31:21.442Z,97.50
2019-01-19T02:33:28.139Z,97.50
2019-01-19T02:35:34.836Z,97.50
2019-01-19T02:37:41.573Z,97.40
2019-01-19T02:40:12.417Z,97.40
2019-01-19T02:42:38.488Z,97.30
2019-01-19T02:44:50.365Z,97.30
2019-01-19T02:47:08.794Z,97.40
2019-01-19T02:49:18.232Z,97.40
2019-01-19T02:51:48.610Z,97.50
2019-01-19T02:53:55.389Z,97.50
2019-01-19T02:56:21.390Z,97.70
2019-01-19T02:58:28.191Z,99.50
2019-01-19T03:00:40.391Z,99.90
2019-01-19T03:03:11.213Z,99.90
2019-01-19T03:05:17.997Z,99.90
2019-01-19T03:07:36.345Z,99.90
2019-01-19T03:10:00.684Z,99.90
2019-01-19T03:12:19.263Z,99.90
2019-01-19T03:14:31.853Z,99.90
2019-01-19T03:16:50.182Z,99.90
2019-01-19T03:19:05.707Z,99.90
2019-01-19T03:21:27.433Z,99.90
2019-01-19T03:23:43.045Z,99.90
2019-01-19T03:25:58.414Z,99.90
2019-01-19T03:28:05.214Z,99.90
2019-01-19T03:30:14.667Z,99.90
2019-01-19T03:32:27.184Z,99.90
2019-01-19T03:34:57.554Z,99.90
2019-01-19T03:37:15.588Z,99.90
2019-01-19T03:39:41.498Z,99.90
2019-01-19T03:42:03.981Z,99.90
2019-01-19T03:44:19.374Z,99.90
2019-01-19T03:46:26.677Z,99.90
2019-01-19T03:48:42.272Z,99.90
2019-01-19T03:50:54.561Z,99.90
2019-01-19T03:53:01.229Z,99.90
2019-01-19T03:55:27.257Z,99.90
2019-01-19T03:57:34.005Z,99.90
2019-01-19T03:59:46.405Z,99.90
2019-01-19T04:02:02.850Z,99.90
2019-01-19T04:04:21.535Z,99.90
2019-01-19T04:06:33.824Z,99.90
2019-01-19T04:08:58.225Z,99.90
2019-01-19T04:11:07.600Z,99.90
2019-01-19T04:13:39.474Z,99.90
2019-01-19T04:15:49.021Z,99.90
2019-01-19T04:18:10.610Z,99.90
2019-01-19T04:20:34.884Z,99.90
2019-01-19T04:22:38.838Z,99.90
2019-01-19T04:24:48.289Z,99.90
2019-01-19T04:26:52.146Z,99.90
2019-01-19T04:28:56.079Z,99.90
2019-01-19T04:30:59.857Z,99.90
2019-01-19T04:33:03.726Z,99.90
2019-01-19T04:35:07.529Z,99.90
2019-01-19T04:37:11.262Z,99.90
2019-01-19T04:39:15.006Z,99.90
2019-01-19T04:41:18.727Z,99.90
2019-01-19T04:43:22.452Z,99.90
2019-01-19T04:45:26.225Z,99.90
2019-01-19T04:47:29.903Z,99.90
2019-01-19T04:49:33.608Z,99.90
2019-01-19T04:51:37.319Z,99.90
2019-01-19T04:53:41.081Z,99.90
2019-01-19T04:55:44.963Z,99.90
2019-01-19T04:57:48.638Z,99.90
2019-01-19T04:59:52.289Z,99.90
2019-01-19T05:01:56.084Z,99.90
2019-01-19T05:03:59.809Z,99.90
2019-01-19T05:06:11.755Z,99.90
2019-01-19T05:08:08.986Z,99.90
2019-01-19T05:10:13.146Z,99.90
2019-01-19T05:12:16.925Z,99.90
2019-01-19T05:14:20.567Z,99.90
2019-01-19T05:16:24.311Z,99.90
2019-01-19T05:18:28.119Z,99.90
2019-01-19T05:20:31.952Z,99.90
2019-01-19T05:22:35.669Z,99.90
2019-01-19T05:24:39.372Z,99.90
2019-01-19T05:26:43.143Z,99.90
2019-01-19T05:28:46.807Z,99.90
2019-01-19T05:30:50.467Z,99.90
2019-01-19T05:32:54.207Z,99.90
2019-01-19T05:34:58.439Z,99.90
2019-01-19T05:37:02.241Z,99.90
2019-01-19T05:39:07.410Z,99.90
2019-01-19T05:41:11.148Z,99.90
2019-01-19T05:43:14.851Z,99.90
2019-01-19T05:45:18.659Z,99.90
2019-01-19T05:47:22.533Z,99.90
2019-01-19T05:49:26.346Z,99.90
2019-01-19T05:51:30.058Z,99.90
2019-01-19T05:53:33.829Z,99.90
2019-01-19T05:55:37.517Z,99.90
2019-01-19T05:57:41.320Z,99.90
2019-01-19T05:59:44.989Z,99.90
2019-01-19T06:01:48.755Z,99.90
2019-01-19T06:03:52.473Z,99.90
2019-01-19T06:05:56.254Z,99.90
2019-01-19T06:08:00.055Z,99.90
2019-01-19T06:10:05.481Z,99.90
2019-01-19T06:12:09.238Z,99.90
2019-01-19T06:14:12.924Z,99.90
2019-01-19T06:16:17.004Z,99.90
2019-01-19T06:18:20.741Z,99.90
2019-01-19T06:20:24.463Z,99.90
2019-01-19T06:22:28.152Z,99.90
2019-01-19T06:24:31.849Z,99.90
2019-01-19T06:26:35.515Z,99.90
2019-01-19T06:28:39.165Z,99.90
2019-01-19T06:30:42.822Z,99.90
2019-01-19T06:32:46.559Z,99.90
2019-01-19T06:34:50.326Z,99.90
2019-01-19T06:36:55.742Z,99.90
2019-01-19T06:38:59.574Z,99.90
2019-01-19T06:41:03.292Z,99.90
2019-01-19T06:43:06.995Z,99.90
2019-01-19T06:45:15.998Z,99.90
2019-01-19T06:47:19.756Z,99.90
2019-01-19T06:49:23.488Z,99.90
2019-01-19T06:51:27.223Z,99.90
2019-01-19T06:53:30.972Z,99.90
2019-01-19T06:55:35.035Z,99.90
2019-01-19T06:57:38.651Z,99.90
2019-01-19T06:59:42.382Z,99.90
2019-01-19T07:01:47.987Z,99.90
2019-01-19T07:03:51.642Z,99.90
2019-01-19T07:05:55.372Z,99.90
2019-01-19T07:08:00.339Z,99.90
2019-01-19T07:10:06.668Z,99.90
2019-01-19T07:12:11.029Z,99.90
2019-01-19T07:14:14.710Z,99.90
2019-01-19T07:16:18.373Z,99.90
2019-01-19T07:18:22.086Z,99.90
2019-01-19T07:20:27.825Z,99.90
2019-01-19T07:22:31.511Z,99.90
2019-01-19T07:24:35.320Z,99.90
2019-01-19T07:26:39.175Z,99.90
2019-01-19T07:28:42.819Z,99.90
2019-01-19T07:30:49.116Z,99.90
2019-01-19T07:32:52.850Z,99.90
2019-01-19T07:34:56.597Z,99.90
2019-01-19T07:37:01.961Z,99.90
2019-01-19T07:39:07.374Z,99.90
2019-01-19T07:41:11.226Z,99.90
2019-01-19T07:43:15.086Z,99.90
2019-01-19T07:45:18.806Z,99.90
2019-01-19T07:47:22.860Z,99.90
2019-01-19T07:49:26.562Z,99.90
2019-01-19T07:51:30.282Z,99.90
2019-01-19T07:53:34.504Z,99.90
2019-01-19T07:55:38.366Z,99.90
2019-01-19T07:57:42.858Z,99.90
2019-01-19T07:59:46.643Z,99.90
2019-01-19T08:01:50.457Z,99.90
2019-01-19T08:03:54.198Z,99.90
2019-01-19T08:05:57.891Z,99.90
2019-01-19T08:08:01.685Z,99.90
2019-01-19T08:10:14.089Z,99.90
2019-01-19T08:12:17.799Z,99.90
2019-01-19T08:14:21.809Z,99.90
2019-01-19T08:16:25.607Z,99.80
2019-01-19T08:18:29.307Z,99.90
2019-01-19T08:20:33.009Z,99.90
2019-01-19T08:22:36.679Z,99.90
2019-01-19T08:24:40.688Z,99.90
2019-01-19T08:26:44.606Z,99.60
2019-01-19T08:28:48.361Z,97.50
2019-01-19T08:30:52.911Z,95.90
2019-01-19T08:32:56.739Z,91.10
2019-01-19T08:35:00.677Z,85.50
2019-01-19T08:37:04.428Z,74.80
2019-01-19T08:39:08.256Z,73.10
2019-01-19T08:41:12.516Z,55.90
2019-01-19T08:43:30.174Z,55.00
2019-01-19T08:45:33.949Z,48.80
2019-01-19T08:47:37.736Z,39.50
2019-01-19T08:49:41.568Z,37.40
2019-01-19T08:51:45.310Z,41.40
2019-01-19T08:53:49.059Z,33.80
2019-01-19T08:55:52.784Z,26.80
2019-01-19T08:57:56.653Z,24.10
2019-01-19T09:00:00.447Z,23.10
2019-01-19T09:02:05.296Z,22.90
2019-01-19T09:04:09.083Z,25.00
2019-01-19T09:06:12.757Z,19.40
2019-01-19T09:08:16.578Z,21.10
2019-01-19T09:10:20.607Z,20.10
2019-01-19T09:12:24.328Z,19.50
2019-01-19T09:14:28.047Z,18.70
2019-01-19T09:16:39.588Z,17.80
2019-01-19T09:18:38.713Z,20.80
2019-01-19T09:20:42.396Z,23.30
2019-01-19T09:22:47.844Z,26.00
2019-01-19T09:24:51.571Z,28.20
2019-01-19T09:26:55.477Z,31.10
2019-01-19T09:28:59.286Z,32.70
2019-01-19T09:31:03.140Z,34.50
2019-01-19T09:33:06.925Z,35.30
2019-01-19T09:35:11.263Z,36.40
2019-01-19T09:37:14.983Z,37.10
2019-01-19T09:39:18.752Z,37.60
2019-01-19T09:41:22.547Z,36.60
2019-01-19T09:43:26.379Z,38.40
2019-01-19T09:45:32.619Z,40.70
2019-01-19T09:47:36.492Z,40.50
2019-01-19T09:49:40.267Z,42.20
2019-01-19T09:51:45.168Z,39.00
2019-01-19T09:53:48.934Z,40.30
2019-01-19T09:55:52.628Z,38.60
2019-01-19T09:57:56.407Z,40.70
2019-01-19T10:00:00.363Z,38.70
2019-01-19T10:02:04.181Z,38.50
2019-01-19T10:04:08.038Z,37.50
2019-01-19T10:06:11.932Z,33.10
2019-01-19T10:08:15.673Z,27.30
2019-01-19T10:10:19.491Z,23.90
2019-01-19T10:12:23.352Z,20.60
2019-01-19T10:14:27.174Z,21.30
2019-01-19T10:16:30.920Z,15.50
2019-01-19T10:18:34.976Z,13.70
2019-01-19T10:20:38.635Z,14.80
2019-01-19T10:22:42.356Z,16.80
2019-01-19T10:24:46.161Z,14.20
2019-01-19T10:26:49.964Z,11.20
2019-01-19T10:28:54.003Z,11.70
2019-01-19T10:30:57.837Z,7.10
2019-01-19T10:33:01.677Z,7.40
2019-01-19T10:35:08.848Z,6.30
2019-01-19T10:37:12.412Z,7.50
2019-01-19T10:39:16.214Z,5.80
2019-01-19T10:41:19.786Z,1.40
2019-01-19T10:43:23.558Z,1.50
2019-01-19T10:45:29.078Z,2.50
2019-01-19T10:47:32.807Z,6.40
2019-01-19T10:49:36.657Z,4.30
2019-01-19T10:51:40.437Z,5.20
2019-01-19T10:53:44.192Z,3.90
2019-01-19T10:55:48.003Z,4.90
2019-01-19T10:57:51.717Z,4.90
2019-01-19T10:59:55.497Z,4.70
2019-01-19T11:01:59.117Z,2.90
2019-01-19T11:04:03.409Z,3.10
2019-01-19T11:06:07.211Z,3.90
2019-01-19T11:08:12.212Z,4.80
2019-01-19T11:10:18.460Z,4.40
2019-01-19T11:12:22.182Z,4.80
2019-01-19T11:14:25.832Z,4.60
2019-01-19T11:16:29.685Z,3.90
2019-01-19T11:18:33.342Z,2.60
2019-01-19T11:20:37.027Z,3.10
2019-01-19T11:22:40.781Z,2.50
2019-01-19T11:24:46.148Z,1.60
2019-01-19T11:26:49.936Z,1.90
2019-01-19T11:28:53.530Z,1.70
2019-01-19T11:30:57.279Z,1.00
2019-01-19T11:33:01.080Z,1.00
2019-01-19T11:35:05.402Z,1.00
2019-01-19T11:37:09.268Z,1.00
2019-01-19T11:39:12.981Z,1.00
2019-01-19T11:41:16.733Z,1.00
2019-01-19T11:43:20.535Z,1.00
2019-01-19T11:45:25.195Z,1.00
2019-01-19T11:47:29.055Z,1.00
2019-01-19T11:49:32.671Z,1.00
2019-01-19T11:51:36.415Z,1.00
2019-01-19T11:53:40.296Z,1.00
2019-01-19T11:55:44.031Z,1.00
2019-01-19T11:57:49.450Z,1.00
2019-01-19T11:59:53.180Z,1.00
2019-01-19T12:01:56.874Z,1.00
2019-01-19T12:04:00.540Z,1.00
2019-01-19T12:06:05.628Z,1.00
2019-01-19T12:08:10.018Z,1.00
2019-01-19T12:10:18.950Z,1.00
2019-01-19T12:12:22.564Z,1.00
2019-01-19T12:14:26.290Z,1.00
2019-01-19T12:16:30.046Z,1.00
2019-01-19T12:18:33.690Z,1.00
2019-01-19T12:20:39.472Z,1.00
2019-01-19T12:22:43.283Z,1.00
2019-01-19T12:24:46.993Z,1.00
2019-01-19T12:26:50.875Z,1.00
2019-01-19T12:28:54.667Z,1.00
2019-01-19T12:30:58.314Z,1.00
2019-01-19T12:33:02.176Z,2.10
2019-01-19T12:35:06.503Z,3.00
2019-01-19T12:37:10.262Z,1.00
2019-01-19T12:39:14.018Z,1.00
2019-01-19T12:41:17.731Z,1.00
2019-01-19T12:43:21.520Z,1.30
2019-01-19T12:45:30.535Z,1.00
2019-01-19T12:47:34.350Z,1.00
2019-01-19T12:49:38.005Z,1.00
2019-01-19T12:51:41.856Z,1.00
2019-01-19T12:53:45.664Z,1.00
2019-01-19T12:55:49.407Z,1.00
2019-01-19T12:57:53.263Z,1.00
2019-01-19T12:59:56.962Z,1.00
2019-01-19T13:02:00.720Z,1.00
2019-01-19T13:04:04.480Z,2.70
2019-01-19T13:06:13.866Z,1.40
2019-01-19T13:08:20.628Z,1.00
2019-01-19T13:10:38.952Z,1.40
2019-01-19T13:12:42.845Z,1.00
2019-01-19T13:14:50.784Z,1.00
2019-01-19T13:17:00.176Z,1.00
2019-01-19T13:19:12.096Z,1.00
2019-01-19T13:21:40.951Z,1.00
2019-01-19T13:24:20.415Z,1.00
2019-01-19T13:26:43.408Z,1.00
2019-01-19T13:29:01.751Z,1.00
2019-01-19T13:31:30.724Z,1.20
2019-01-19T13:34:07.803Z,1.00
2019-01-19T13:36:26.232Z,3.00
2019-01-19T13:38:41.996Z,2.60
2019-01-19T13:40:50.008Z,1.00
2019-01-19T13:43:05.498Z,1.00
2019-01-19T13:45:26.899Z,1.00
2019-01-19T13:47:51.527Z,1.00
2019-01-19T13:50:13.070Z,3.60
2019-01-19T13:52:31.406Z,1.00
2019-01-19T13:55:00.440Z,1.00
2019-01-19T13:57:25.112Z,1.00
2019-01-19T13:59:35.798Z,1.00
2019-01-19T14:02:15.160Z,1.00
2019-01-19T14:04:22.561Z,1.00
2019-01-19T14:06:31.860Z,1.00
2019-01-19T14:08:53.540Z,1.00
2019-01-19T14:11:06.018Z,1.00
2019-01-19T14:13:27.463Z,1.00
2019-01-19T14:15:46.214Z,1.00
2019-01-19T14:18:15.103Z,1.00
2019-01-19T14:20:36.914Z,1.00
2019-01-19T14:22:49.809Z,1.00
2019-01-19T14:25:08.229Z,1.20
2019-01-19T14:27:44.992Z,3.50
2019-01-19T14:30:00.410Z,5.40
2019-01-19T14:32:22.011Z,5.70
2019-01-19T14:34:56.074Z,6.80
2019-01-19T14:37:02.846Z,7.80
2019-01-19T14:39:25.408Z,7.50
2019-01-19T14:41:55.911Z,7.90
2019-01-19T14:44:25.263Z,9.30
2019-01-19T14:46:49.577Z,9.50
2019-01-19T14:49:29.394Z,10.00
2019-01-19T14:52:07.375Z,10.70
2019-01-19T14:54:31.392Z,10.20
2019-01-19T14:56:55.786Z,11.30
2019-01-19T14:59:08.021Z,11.50
2019-01-19T15:01:17.589Z,12.70
2019-01-19T15:03:36.077Z,13.60
2019-01-19T15:05:45.413Z,13.80
2019-01-19T15:07:52.215Z,13.70
2019-01-19T15:10:04.508Z,14.30
2019-01-19T15:12:33.428Z,15.40
2019-01-19T15:15:05.412Z,17.70
2019-01-19T15:17:12.124Z,17.20
2019-01-19T15:19:27.629Z,18.10
2019-01-19T15:21:45.977Z,19.30
2019-01-19T15:23:55.063Z,19.70
2019-01-19T15:26:08.570Z,20.50
2019-01-19T15:28:17.715Z,21.00
2019-01-19T15:30:36.576Z,21.50
2019-01-19T15:32:59.615Z,22.30
2019-01-19T15:35:14.919Z,22.80
2019-01-19T15:37:45.681Z,23.10
2019-01-19T15:39:55.021Z,23.30
2019-01-19T15:42:26.846Z,22.40
2019-01-19T15:44:48.230Z,23.10
2019-01-19T15:46:59.510Z,23.10
2019-01-19T15:49:22.914Z,22.70
2019-01-19T15:51:32.889Z,22.90
2019-01-19T15:53:39.659Z,24.30
2019-01-19T15:55:46.623Z,24.30
2019-01-19T15:58:05.479Z,24.00
2019-01-19T16:00:48.333Z,25.30
2019-01-19T16:03:15.707Z,26.00
2019-01-19T16:05:41.826Z,26.00
2019-01-19T16:08:12.666Z,26.10
2019-01-19T16:10:23.955Z,26.30
2019-01-19T16:12:30.807Z,27.20
2019-01-19T16:15:10.724Z,27.10
2019-01-19T16:17:42.697Z,27.10
2019-01-19T16:19:55.026Z,27.40
2019-01-19T16:22:13.400Z,27.70
2019-01-19T16:24:26.102Z,28.40
2019-01-19T16:26:33.032Z,27.90
2019-01-19T16:28:55.767Z,28.70
2019-01-19T16:31:25.626Z,28.50
2019-01-19T16:33:38.028Z,29.50
2019-01-19T16:35:50.497Z,30.00
2019-01-19T16:38:20.342Z,30.20
2019-01-19T16:40:55.666Z,30.20
2019-01-19T16:43:26.610Z,30.70
2019-01-19T16:46:06.177Z,30.60
2019-01-19T16:48:15.715Z,30.70
2019-01-19T16:50:41.653Z,30.90
2019-01-19T16:53:00.303Z,31.00
2019-01-19T16:55:18.970Z,31.10
2019-01-19T16:57:31.491Z,32.40
2019-01-19T16:59:50.826Z,32.60
2019-01-19T17:02:15.211Z,32.90
2019-01-19T17:04:27.702Z,33.30
2019-01-19T17:06:48.952Z,33.00
2019-01-19T17:09:01.222Z,34.10
2019-01-19T17:11:13.776Z,34.60
2019-01-19T17:13:34.649Z,34.90
2019-01-19T17:15:43.959Z,36.40
2019-01-19T17:18:08.791Z,36.30
2019-01-19T17:20:21.272Z,35.80
2019-01-19T17:22:30.620Z,36.30
2019-01-19T17:24:45.946Z,35.90
2019-01-19T17:27:04.377Z,36.70
2019-01-19T17:29:19.954Z,37.10
2019-01-19T17:31:44.365Z,37.30
2019-01-19T17:33:51.074Z,37.30
2019-01-19T17:36:06.248Z,37.50
2019-01-19T17:38:21.384Z,38.10
2019-01-19T17:40:47.137Z,38.40
2019-01-19T17:43:02.763Z,39.50
2019-01-19T17:45:14.998Z,38.80
2019-01-19T17:47:24.637Z,38.60
2019-01-19T17:49:39.926Z,38.50
2019-01-19T17:52:04.425Z,39.50
2019-01-19T17:54:22.908Z,39.50
2019-01-19T17:56:38.226Z,39.70
2019-01-19T17:59:02.813Z,39.70
2019-01-19T18:01:18.317Z,40.80
2019-01-19T18:03:43.097Z,40.20
2019-01-19T18:05:58.762Z,40.50
2019-01-19T18:08:23.305Z,40.60
2019-01-19T18:10:32.841Z,40.40
2019-01-19T18:12:58.892Z,40.40
2019-01-19T18:15:33.825Z,41.10
2019-01-19T18:17:40.504Z,41.30
2019-01-19T18:19:52.657Z,41.70
2019-01-19T18:22:20.399Z,42.30
2019-01-19T18:24:47.804Z,42.90
2019-01-19T18:26:54.482Z,43.10
2019-01-19T18:29:26.366Z,43.30
2019-01-19T18:31:41.370Z,42.80
2019-01-19T18:33:48.040Z,43.30
2019-01-19T18:36:06.432Z,43.80
2019-01-19T18:38:18.893Z,43.80
2019-01-19T18:40:44.921Z,44.40
2019-01-19T18:43:04.968Z,45.00
2019-01-19T18:45:11.669Z,45.90
2019-01-19T18:47:26.928Z,45.90
2019-01-19T18:49:55.941Z,46.20
2019-01-19T18:52:11.650Z,46.60
2019-01-19T18:54:40.527Z,47.30
2019-01-19T18:57:21.480Z,47.00
2019-01-19T18:59:36.759Z,48.30
2019-01-19T19:01:46.288Z,51.10
2019-01-19T19:04:09.397Z,53.70
2019-01-19T19:06:19.155Z,55.90
2019-01-19T19:08:34.400Z,58.00
2019-01-19T19:10:57.394Z,61.00
2019-01-19T19:13:12.901Z,61.30
2019-01-19T19:15:19.650Z,63.70
2019-01-19T19:17:39.466Z,66.30
2019-01-19T19:19:46.239Z,66.10
2019-01-19T19:22:01.679Z,64.40
2019-01-19T19:24:19.577Z,65.60
2019-01-19T19:26:57.908Z,66.30
2019-01-19T19:29:22.262Z,65.80
2019-01-19T19:31:48.220Z,65.90
2019-01-19T19:34:00.429Z,66.30
2019-01-19T19:36:31.050Z,67.90
2019-01-19T19:38:40.682Z,66.70
2019-01-19T19:41:02.440Z,67.40
2019-01-19T19:43:09.273Z,66.50
2019-01-19T19:45:32.049Z,66.50
2019-01-19T19:47:41.871Z,66.10
2019-01-19T19:49:54.233Z,65.70
2019-01-19T19:52:00.349Z,66.50
2019-01-19T19:54:04.206Z,67.20
2019-01-19T19:56:06.867Z,67.60
2019-01-19T19:58:10.637Z,67.60
2019-01-19T20:00:14.697Z,67.70
2019-01-19T20:02:18.344Z,67.60
2019-01-19T20:04:22.116Z,67.30
2019-01-19T20:06:25.935Z,66.90
2019-01-19T20:08:29.706Z,67.10
2019-01-19T20:10:33.445Z,67.30
2019-01-19T20:12:37.148Z,67.40
2019-01-19T20:14:41.430Z,67.80
2019-01-19T20:16:45.531Z,68.40
2019-01-19T20:18:49.328Z,68.50
2019-01-19T20:20:53.062Z,68.60
2019-01-19T20:22:56.830Z,68.70
2019-01-19T20:25:00.671Z,68.90
2019-01-19T20:27:04.405Z,69.10
2019-01-19T20:29:08.183Z,68.90
2019-01-19T20:31:11.753Z,69.00
2019-01-19T20:33:15.718Z,68.80
2019-01-19T20:35:19.442Z,68.80
2019-01-19T20:37:23.206Z,69.10
2019-01-19T20:39:27.068Z,69.20
2019-01-19T20:41:30.827Z,68.70
2019-01-19T20:43:34.694Z,68.30
2019-01-19T20:45:39.718Z,67.70
2019-01-19T20:47:43.350Z,67.30
2019-01-19T20:49:47.243Z,67.60
2019-01-19T20:51:51.494Z,67.80
2019-01-19T20:53:55.297Z,67.70
2019-01-19T20:55:58.978Z,66.70
2019-01-19T20:58:02.834Z,67.10
2019-01-19T21:00:15.774Z,67.30
2019-01-19T21:02:19.515Z,68.10
2019-01-19T21:04:23.360Z,68.40
2019-01-19T21:06:28.363Z,67.80
2019-01-19T21:08:32.173Z,68.30
2019-01-19T21:10:36.455Z,68.00
2019-01-19T21:12:40.279Z,67.90
2019-01-19T21:14:43.984Z,68.50
2019-01-19T21:16:47.718Z,68.60
2019-01-19T21:18:51.394Z,69.40
2019-01-19T21:20:55.078Z,70.80
2019-01-19T21:22:58.917Z,71.30
2019-01-19T21:25:03.109Z,71.40
2019-01-19T21:27:07.270Z,71.90
2019-01-19T21:29:11.069Z,71.80
2019-01-19T21:31:14.942Z,72.60
2019-01-19T21:33:18.745Z,72.70
2019-01-19T21:35:23.134Z,72.90
2019-01-19T21:37:26.852Z,72.80
2019-01-19T21:39:30.516Z,72.80
2019-01-19T21:41:34.155Z,72.00
2019-01-19T21:43:37.748Z,71.20
2019-01-19T21:45:41.596Z,71.50
2019-01-19T21:47:46.147Z,71.60
2019-01-19T21:49:49.882Z,71.50
2019-01-19T21:51:53.641Z,72.60
2019-01-19T21:53:57.258Z,71.40
2019-01-19T21:56:00.897Z,71.60
2019-01-19T21:58:04.895Z,70.20
2019-01-19T22:00:14.446Z,71.10
2019-01-19T22:02:19.192Z,71.00
2019-01-19T22:04:22.799Z,70.80
2019-01-19T22:06:26.494Z,71.80
2019-01-19T22:08:30.073Z,72.00
2019-01-19T22:10:33.913Z,72.50
2019-01-19T22:12:37.534Z,72.80
2019-01-19T22:14:41.122Z,72.80
2019-01-19T22:16:44.756Z,72.40
2019-01-19T22:18:48.413Z,72.00
2019-01-19T22:20:52.107Z,72.40
2019-01-19T22:22:55.776Z,73.70
2019-01-19T22:24:59.441Z,74.10
2019-01-19T22:27:04.800Z,73.80
2019-01-19T22:29:08.730Z,74.10
2019-01-19T22:31:12.552Z,74.10
2019-01-19T22:33:16.803Z,73.40
2019-01-19T22:35:20.626Z,73.00
2019-01-19T22:37:24.315Z,73.10
2019-01-19T22:39:27.974Z,74.00
2019-01-19T22:41:31.672Z,74.40
2019-01-19T22:43:35.397Z,75.70
2019-01-19T22:45:39.153Z,76.40
2019-01-19T22:47:44.025Z,76.90
2019-01-19T22:49:47.642Z,76.90
2019-01-19T22:51:51.306Z,76.90
2019-01-19T22:53:54.969Z,77.00
2019-01-19T22:55:58.609Z,77.00
2019-01-19T22:58:02.253Z,76.60
2019-01-19T23:00:14.911Z,77.30
2019-01-19T23:02:18.794Z,77.30
2019-01-19T23:04:22.639Z,77.50
2019-01-19T23:06:26.355Z,77.30
2019-01-19T23:08:30.144Z,76.90
2019-01-19T23:10:34.070Z,77.10
2019-01-19T23:12:37.804Z,76.50
2019-01-19T23:14:42.439Z,76.10
2019-01-19T23:16:46.290Z,75.40
2019-01-19T23:18:50.115Z,75.30
2019-01-19T23:20:53.786Z,75.00
2019-01-19T23:22:57.727Z,74.80
2019-01-19T23:25:01.495Z,75.10
2019-01-19T23:27:05.619Z,75.10
2019-01-19T23:29:09.385Z,75.40
2019-01-19T23:31:13.110Z,75.60
2019-01-19T23:33:16.809Z,75.90
2019-01-19T23:35:20.709Z,75.60
2019-01-19T23:37:24.343Z,75.60
2019-01-19T23:39:28.037Z,75.80
2019-01-19T23:41:31.718Z,75.40
2019-01-19T23:43:35.487Z,75.30
2019-01-19T23:45:39.220Z,75.80
2019-01-19T23:47:42.977Z,75.70
2019-01-19T23:49:46.617Z,75.60
2019-01-19T23:51:50.345Z,75.40
2019-01-19T23:53:54.205Z,75.30
2019-01-19T23:55:57.862Z,75.40
2019-01-19T23:58:01.481Z,75.30
